Time;durP1;ratioP1;P1;durP2;ratioP2;P2;SDS_P1;SDS_P2;PMS_P1;PMS_P2;Temp;Humidity;BMP_temperature;BMP_pressure;BME280_temperature;BME280_humidity;BME280_pressure;Samples;Min_cycle;Max_cycle;Signal;HPM_P1;HPM_P2
2022/04/17 00:00:53;;;;;;;3.03;0.90;;;;;;;9.49;36.99;100839.56;4359352;32;32204;-86
2022/04/17 00:03:22;;;;;;;2.62;0.88;;;;;;;9.46;36.80;100858.06;4363714;32;33360;-85
2022/04/17 00:05:50;;;;;;;1.65;0.82;;;;;;;9.66;37.16;100852.34;4366786;32;33517;-86
2022/04/17 00:08:18;;;;;;;2.42;1.35;;;;;;;9.54;36.50;100846.47;4365153;32;32198;-86
2022/04/17 00:10:47;;;;;;;3.95;2.72;;;;;;;9.75;36.31;100838.06;4363444;32;34475;-86
2022/04/17 00:13:16;;;;;;;4.82;2.25;;;;;;;9.65;34.67;100834.78;4355005;32;34670;-85
2022/04/17 00:15:45;;;;;;;7.90;3.45;;;;;;;9.38;35.20;100849.44;4367303;32;33764;-85
2022/04/17 00:18:15;;;;;;;4.10;2.75;;;;;;;9.17;35.93;100844.66;4355599;32;33759;-85
2022/04/17 00:20:46;;;;;;;7.50;3.95;;;;;;;9.52;35.98;100835.97;4365652;32;34486;-85
2022/04/17 00:23:15;;;;;;;5.85;3.22;;;;;;;9.64;35.89;100835.69;4357446;32;32569;-86
2022/04/17 00:25:43;;;;;;;4.75;2.92;;;;;;;9.52;35.52;100832.47;4367094;32;35053;-86
2022/04/17 00:28:11;;;;;;;1.67;1.30;;;;;;;9.43;35.06;100842.31;4366184;32;33448;-84
2022/04/17 00:30:41;;;;;;;1.48;0.98;;;;;;;9.06;32.91;100839.59;4354856;32;32477;-86
2022/04/17 00:33:11;;;;;;;2.05;0.77;;;;;;;8.66;33.62;100850.06;4361752;32;32903;-85
2022/04/17 00:35:47;;;;;;;0.55;0.50;;;;;;;8.76;35.04;100849.00;4364027;32;32209;-86
2022/04/17 00:38:15;;;;;;;3.95;1.00;;;;;;;8.62;35.00;100848.38;4368980;32;33689;-87
2022/04/17 00:40:43;;;;;;;1.70;1.00;;;;;;;9.03;33.17;100844.09;4366087;32;33767;-87
2022/04/17 00:43:30;;;;;;;1.85;0.98;;;;;;;8.91;32.83;100843.41;4352697;32;32973;-86
2022/04/17 00:45:59;;;;;;;0.93;0.62;;;;;;;8.86;33.20;100844.41;4369608;32;33675;-86
2022/04/17 00:48:27;;;;;;;1.10;1.00;;;;;;;8.43;33.94;100838.19;4352628;32;34245;-86
2022/04/17 00:50:56;;;;;;;1.77;0.80;;;;;;;8.94;33.80;100839.88;4343781;32;33006;-86
2022/04/17 00:53:25;;;;;;;1.25;0.80;;;;;;;9.01;33.15;100833.56;4366775;32;34424;-84
2022/04/17 00:55:53;;;;;;;1.87;1.05;;;;;;;8.84;32.89;100823.37;4354293;32;32270;-83
2022/04/17 00:58:21;;;;;;;1.27;0.80;;;;;;;8.82;33.54;100825.16;4366719;32;34020;-83
2022/04/17 01:00:48;;;;;;;1.23;0.82;;;;;;;8.95;33.36;100831.91;4367847;32;34235;-84
2022/04/17 01:03:17;;;;;;;1.27;1.00;;;;;;;8.64;34.04;100825.53;4352152;32;32700;-83
2022/04/17 01:05:46;;;;;;;1.27;0.98;;;;;;;9.09;33.34;100828.12;4355603;32;33185;-83
2022/04/17 01:08:18;;;;;;;2.30;0.70;;;;;;;8.92;33.77;100829.34;4363907;32;33365;-82
2022/04/17 01:10:46;;;;;;;1.00;0.70;;;;;;;9.18;33.30;100828.81;4368379;32;34694;-82
2022/04/17 01:13:14;;;;;;;1.48;0.85;;;;;;;8.87;32.70;100827.69;4365570;32;33361;-82
2022/04/17 01:15:44;;;;;;;1.80;0.62;;;;;;;9.16;33.27;100827.09;4368161;32;34374;-83
2022/04/17 01:18:11;;;;;;;1.02;0.90;;;;;;;8.79;33.07;100824.38;4365665;32;33285;-82
2022/04/17 01:20:40;;;;;;;1.50;0.93;;;;;;;8.42;33.37;100830.34;4366944;32;33270;-82
2022/04/17 01:28:45;;;;;;;2.12;1.08;;;;;;;8.21;33.17;100826.28;4365868;32;32616;-82
2022/04/17 01:31:27;;;;;;;1.77;1.00;;;;;;;8.33;33.55;100831.34;4364358;32;34653;-83
2022/04/17 01:33:55;;;;;;;1.85;0.80;;;;;;;8.14;33.22;100832.56;4362531;32;36133;-83
2022/04/17 01:36:24;;;;;;;2.03;1.10;;;;;;;8.28;33.58;100824.44;4344176;32;31000;-83
2022/04/17 01:38:53;;;;;;;1.33;0.65;;;;;;;8.70;34.99;100817.53;4353943;32;32833;-83
2022/04/17 01:41:21;;;;;;;1.37;0.90;;;;;;;9.01;32.13;100819.53;4354294;32;34094;-84
2022/04/17 01:43:53;;;;;;;0.95;0.82;;;;;;;8.44;32.95;100825.91;4364023;32;33372;-84
2022/04/17 01:46:22;;;;;;;1.83;0.65;;;;;;;8.29;33.06;100820.91;4366488;32;34276;-84
2022/04/17 01:48:50;;;;;;;1.62;0.77;;;;;;;8.56;33.09;100817.78;4367668;32;31797;-84
2022/04/17 01:51:18;;;;;;;1.12;0.80;;;;;;;8.71;34.12;100812.22;4356277;32;33236;-84
2022/04/17 01:53:46;;;;;;;1.60;0.95;;;;;;;9.26;32.95;100814.59;4358168;32;33415;-84
2022/04/17 01:56:20;;;;;;;1.10;0.70;;;;;;;9.00;33.44;100816.03;4366313;32;33743;-85
2022/04/17 01:58:48;;;;;;;2.12;0.80;;;;;;;9.17;33.11;100805.12;4364731;32;33757;-85
2022/04/17 02:01:16;;;;;;;1.62;0.90;;;;;;;9.38;33.17;100799.37;4368644;32;32878;-85
2022/04/17 02:03:45;;;;;;;2.35;1.00;;;;;;;9.34;32.74;100797.69;4358955;32;32653;-84
2022/04/17 02:06:13;;;;;;;1.95;0.90;;;;;;;9.73;33.17;100789.75;4353369;32;34108;-85
2022/04/17 02:08:44;;;;;;;1.77;1.00;;;;;;;9.52;31.49;100795.56;4368391;32;32738;-84
2022/04/17 02:11:12;;;;;;;0.55;0.50;;;;;;;9.41;31.27;100794.03;4366476;32;34368;-85
2022/04/17 02:13:41;;;;;;;1.65;0.90;;;;;;;9.01;32.11;100801.06;4369678;32;33995;-85
2022/04/17 02:16:09;;;;;;;4.47;1.35;;;;;;;9.07;31.86;100796.56;4368849;32;33085;-83
2022/04/17 02:18:37;;;;;;;1.27;0.60;;;;;;;9.19;32.31;100787.50;4368303;32;34007;-84
2022/04/17 02:21:06;;;;;;;1.75;0.80;;;;;;;8.85;32.85;100793.50;4367378;32;33846;-84
2022/04/17 02:23:34;;;;;;;1.17;0.52;;;;;;;9.26;31.00;100786.50;4358015;32;34407;-84
2022/04/17 02:26:02;;;;;;;0.90;0.60;;;;;;;8.82;32.14;100793.56;4366433;32;32398;-84
2022/04/17 02:28:34;;;;;;;0.82;0.62;;;;;;;8.86;31.70;100786.47;4356333;32;32757;-84
2022/04/17 02:31:04;;;;;;;0.55;0.55;;;;;;;8.66;31.72;100792.16;4368539;32;33106;-84
2022/04/17 02:33:34;;;;;;;1.05;0.52;;;;;;;8.52;32.63;100788.91;4368719;32;34275;-84
2022/04/17 02:36:02;;;;;;;0.90;0.80;;;;;;;8.87;31.70;100778.53;4371644;32;32806;-84
2022/04/17 02:38:30;;;;;;;2.37;0.60;;;;;;;8.92;32.25;100778.44;4367888;32;32032;-83
2022/04/17 02:40:58;;;;;;;0.77;0.50;;;;;;;8.69;30.94;100771.03;4368924;32;33926;-84
2022/04/17 02:43:26;;;;;;;1.35;0.60;;;;;;;8.55;32.98;100767.81;4367476;32;33435;-84
2022/04/17 02:45:54;;;;;;;2.05;0.68;;;;;;;8.53;32.03;100759.94;4369610;32;32852;-84
2022/04/17 02:48:23;;;;;;;1.12;0.62;;;;;;;8.55;31.52;100757.28;4370801;32;32662;-84
2022/04/17 02:50:52;;;;;;;1.87;0.50;;;;;;;8.34;34.07;100762.00;4366738;32;33845;-84
2022/04/17 02:53:21;;;;;;;1.85;0.82;;;;;;;8.41;32.78;100752.28;4367795;32;35579;-83
2022/04/17 02:55:49;;;;;;;1.95;0.68;;;;;;;8.57;31.58;100760.75;4368796;32;32408;-85
2022/04/17 02:58:20;;;;;;;1.10;0.80;;;;;;;8.36;32.09;100762.00;4368875;32;32223;-86
2022/04/17 03:06:25;;;;;;;0.40;0.40;;;;;;;7.98;32.38;100771.47;4371456;32;33561;-85
2022/04/17 03:08:54;;;;;;;2.50;0.70;;;;;;;7.88;32.76;100775.13;4345081;32;31943;-84
2022/04/17 03:11:25;;;;;;;0.98;0.43;;;;;;;7.74;33.11;100778.03;4358831;32;33916;-84
2022/04/17 03:13:55;;;;;;;0.40;0.40;;;;;;;7.83;32.72;100780.50;4370859;32;33630;-84
2022/04/17 03:16:24;;;;;;;2.40;0.50;;;;;;;7.85;32.31;100781.31;4367156;32;33867;-84
2022/04/17 03:18:52;;;;;;;0.85;0.60;;;;;;;7.68;33.13;100783.34;4354911;32;33226;-84
2022/04/17 03:21:21;;;;;;;0.45;0.45;;;;;;;7.68;33.00;100785.97;4355578;32;33021;-85
2022/04/17 03:23:48;;;;;;;1.58;0.47;;;;;;;7.82;33.10;100794.50;4340178;32;33017;-85
2022/04/17 03:26:16;;;;;;;0.62;0.50;;;;;;;7.90;33.36;100789.13;4357640;32;33604;-85
2022/04/17 03:28:45;;;;;;;5.85;0.57;;;;;;;7.88;32.68;100786.53;4358336;32;33325;-84
2022/04/17 03:31:13;;;;;;;2.58;0.73;;;;;;;7.76;32.82;100793.75;4369171;32;34108;-85
2022/04/17 03:33:41;;;;;;;1.60;0.40;;;;;;;7.87;33.10;100795.28;4371858;32;32527;-84
2022/04/17 03:36:08;;;;;;;2.17;0.55;;;;;;;7.54;33.27;100795.84;4364599;32;33339;-85
2022/04/17 03:38:36;;;;;;;1.37;0.60;;;;;;;7.96;32.76;100805.66;4370276;32;33609;-83
2022/04/17 03:41:04;;;;;;;0.25;0.25;;;;;;;8.03;32.12;100802.94;4365930;32;32464;-83
2022/04/17 03:43:32;;;;;;;3.08;0.68;;;;;;;7.86;33.32;100804.09;4369046;32;34708;-83
2022/04/17 03:45:59;;;;;;;1.37;0.40;;;;;;;7.55;33.71;100802.81;4350380;32;33717;-84
2022/04/17 03:48:27;;;;;;;1.20;0.55;;;;;;;8.02;33.65;100809.09;4369987;32;33936;-85
2022/04/17 03:50:56;;;;;;;2.83;0.93;;;;;;;8.23;32.39;100802.59;4357585;32;34309;-85
2022/04/17 03:53:25;;;;;;;1.15;0.50;;;;;;;7.95;32.61;100800.44;4355210;32;33798;-85
2022/04/17 03:55:54;;;;;;;1.05;0.65;;;;;;;8.01;32.53;100808.22;4367943;32;33921;-85
2022/04/17 03:58:22;;;;;;;3.95;0.50;;;;;;;8.14;33.02;100806.25;4356476;32;32820;-84
2022/04/17 04:00:53;;;;;;;0.93;0.50;;;;;;;7.91;33.42;100810.13;4360076;32;32664;-83
2022/04/17 04:03:23;;;;;;;0.77;0.60;;;;;;;8.26;32.30;100811.31;4367882;32;33662;-86
2022/04/17 04:05:53;;;;;;;0.73;0.50;;;;;;;7.99;32.62;100814.41;4354506;32;34175;-83
2022/04/17 04:08:22;;;;;;;1.37;0.80;;;;;;;8.08;32.26;100819.53;4366899;32;33421;-84
2022/04/17 04:10:51;;;;;;;1.48;0.60;;;;;;;7.94;32.29;100818.00;4343934;32;32630;-83
2022/04/17 04:13:23;;;;;;;6.22;0.75;;;;;;;7.83;32.57;100819.94;4362236;32;33316;-83
2022/04/17 04:15:51;;;;;;;0.60;0.50;;;;;;;7.72;33.46;100820.97;4355553;32;32638;-83
2022/04/17 04:18:19;;;;;;;0.82;0.45;;;;;;;7.70;33.17;100821.03;4365135;32;33380;-84
2022/04/17 04:20:46;;;;;;;0.98;0.60;;;;;;;7.62;32.98;100820.25;4351822;32;32132;-84
2022/04/17 04:23:14;;;;;;;3.40;0.73;;;;;;;7.71;33.23;100814.84;4365316;32;34983;-84
2022/04/17 04:25:43;;;;;;;1.02;0.50;;;;;;;7.83;33.16;100817.31;4353587;32;34238;-84
2022/04/17 04:31:00;;;;;;;0.77;0.47;;;;;;;7.99;33.68;100819.69;4365698;32;34337;-84
2022/04/17 04:33:31;;;;;;;1.87;0.68;;;;;;;7.99;33.09;100820.53;4352574;32;31821;-84
2022/04/17 04:36:04;;;;;;;1.85;0.80;;;;;;;8.07;33.54;100829.19;4369975;32;33256;-84
2022/04/17 04:41:10;;;;;;;2.37;0.70;;;;;;;7.86;33.92;100825.12;4366106;32;33238;-83
2022/04/17 04:43:38;;;;;;;0.98;0.62;;;;;;;8.04;32.97;100825.72;4339427;32;32957;-83
2022/04/17 04:46:08;;;;;;;0.70;0.40;;;;;;;8.16;32.74;100830.75;4350453;32;33614;-83
2022/04/17 04:51:39;;;;;;;1.50;0.85;;;;;;;8.28;33.74;100827.94;4352338;32;33337;-82
2022/04/17 04:54:10;;;;;;;0.50;0.40;;;;;;;8.48;33.40;100826.72;4366246;32;34942;-81
2022/04/17 04:56:38;;;;;;;1.10;0.75;;;;;;;8.40;32.28;100822.47;4353132;32;32972;-81
2022/04/17 04:59:05;;;;;;;1.83;0.80;;;;;;;8.45;33.22;100825.00;4364350;32;32953;-81
2022/04/17 05:01:33;;;;;;;1.42;0.57;;;;;;;8.66;31.98;100827.25;4357225;32;33145;-81
2022/04/17 05:04:04;;;;;;;1.05;0.75;;;;;;;8.64;32.68;100825.53;4362352;32;34545;-81
2022/04/17 05:06:37;;;;;;;2.55;0.50;;;;;;;8.31;31.56;100826.97;4347289;32;32369;-84
2022/04/17 05:09:12;;;;;;;1.73;0.88;;;;;;;8.41;32.88;100833.87;4340202;32;33263;-84
2022/04/17 05:11:47;;;;;;;1.52;0.62;;;;;;;8.51;32.17;100829.31;4357189;32;33379;-85
2022/04/17 05:14:20;;;;;;;0.70;0.60;;;;;;;8.58;31.58;100829.16;4357211;32;33603;-82
2022/04/17 05:16:52;;;;;;;0.82;0.60;;;;;;;8.46;31.06;100832.88;4362845;32;34414;-87
2022/04/17 05:19:27;;;;;;;0.93;0.70;;;;;;;8.05;33.06;100830.09;4356198;32;33191;-85
2022/04/17 05:21:59;;;;;;;2.80;0.52;;;;;;;8.42;32.34;100831.22;4355943;32;33201;-83
2022/04/17 05:24:40;;;;;;;1.52;0.68;;;;;;;8.45;32.25;100828.53;4355255;32;32956;-84
2022/04/17 05:27:09;;;;;;;1.02;0.70;;;;;;;8.45;31.77;100825.91;4353267;32;32420;-84
2022/04/17 05:29:38;;;;;;;2.45;0.90;;;;;;;8.37;31.81;100827.78;4352493;32;33817;-84
2022/04/17 05:32:08;;;;;;;1.15;0.70;;;;;;;8.09;32.65;100832.63;4362301;32;33700;-83
2022/04/17 05:34:40;;;;;;;0.62;0.50;;;;;;;8.33;32.06;100830.47;4362937;32;35292;-84
2022/04/17 05:37:08;;;;;;;2.30;0.82;;;;;;;8.45;33.56;100831.16;4358116;32;31641;-84
2022/04/17 05:39:42;;;;;;;2.75;0.85;;;;;;;8.81;32.98;100825.19;4368684;32;33382;-84
2022/04/17 05:52:49;;;;;;;4.93;0.80;;;;;;;8.38;31.62;100836.56;4367056;32;31756;-82
2022/04/17 05:55:25;;;;;;;1.25;0.70;;;;;;;8.73;31.72;100822.72;4354829;32;34463;-83
2022/04/17 05:57:57;;;;;;;1.48;0.75;;;;;;;8.87;31.37;100814.53;4361926;32;33178;-83
2022/04/17 06:00:27;;;;;;;0.88;0.68;;;;;;;9.03;32.22;100825.66;4355642;32;31767;-83
2022/04/17 06:02:56;;;;;;;2.87;1.00;;;;;;;9.08;30.51;100823.78;4360984;32;33675;-83
2022/04/17 06:05:33;;;;;;;2.87;1.00;;;;;;;9.00;30.76;100817.78;4366073;32;33987;-83
2022/04/17 06:08:15;;;;;;;1.37;0.70;;;;;;;9.03;30.61;100820.37;4367215;32;34304;-83
2022/04/17 06:13:24;;;;;;;2.65;1.17;;;;;;;9.15;32.38;100823.59;4361362;32;33793;-83
2022/04/17 06:15:57;;;;;;;1.30;0.80;;;;;;;9.64;31.73;100816.37;4364608;32;32238;-83
2022/04/17 06:18:32;;;;;;;1.85;0.77;;;;;;;9.62;31.08;100821.66;4365831;32;33228;-83
2022/04/17 06:21:08;;;;;;;0.75;0.75;;;;;;;9.30;30.90;100826.78;4364501;32;33857;-83
2022/04/17 06:23:35;;;;;;;2.08;1.12;;;;;;;9.30;31.17;100827.66;4342332;32;32826;-83
2022/04/17 06:26:09;;;;;;;2.00;0.60;;;;;;;9.07;30.99;100829.91;4350839;32;33445;-83
2022/04/17 06:28:53;;;;;;;1.37;0.68;;;;;;;9.26;31.75;100836.56;4360188;32;35395;-83
2022/04/17 06:31:21;;;;;;;3.15;0.77;;;;;;;9.33;31.82;100827.59;4348802;32;33693;-84
2022/04/17 06:33:49;;;;;;;5.10;1.37;;;;;;;9.26;32.57;100828.66;4352444;32;32957;-83
2022/04/17 06:36:24;;;;;;;1.87;1.23;;;;;;;9.51;31.50;100825.47;4356361;32;33597;-84
2022/04/17 06:38:55;;;;;;;4.25;1.02;;;;;;;9.43;32.25;100829.13;4348107;32;31939;-84
2022/04/17 06:41:31;;;;;;;3.05;1.30;;;;;;;9.00;31.74;100834.47;4360532;32;32229;-83
2022/04/17 06:44:04;;;;;;;1.92;0.80;;;;;;;9.17;32.36;100831.47;4348601;32;33969;-84
2022/04/17 06:46:35;;;;;;;1.42;0.77;;;;;;;9.56;32.63;100821.81;4351819;32;34429;-84
2022/04/17 06:49:13;;;;;;;1.08;0.98;;;;;;;9.83;30.39;100816.78;4364412;32;33523;-84
2022/04/17 06:51:53;;;;;;;1.35;0.85;;;;;;;9.95;31.56;100822.63;4363928;32;31632;-84
2022/04/17 06:54:23;;;;;;;1.67;0.88;;;;;;;9.79;30.47;100816.00;4341112;32;33535;-84
2022/04/17 06:57:00;;;;;;;1.45;0.80;;;;;;;9.84;31.59;100826.44;4362527;32;33321;-84
2022/04/17 06:59:32;;;;;;;0.77;0.65;;;;;;;10.06;31.14;100834.66;4348739;32;33207;-84
2022/04/17 07:02:04;;;;;;;1.77;0.77;;;;;;;10.04;31.77;100831.22;4341881;32;32176;-84
2022/04/17 07:07:26;;;;;;;1.40;1.03;;;;;;;10.31;33.36;100825.28;4365734;32;34506;-84
2022/04/17 07:10:00;;;;;;;1.20;0.70;;;;;;;10.42;29.23;100827.63;4337338;32;32577;-84
2022/04/17 07:12:30;;;;;;;1.45;0.93;;;;;;;10.24;30.52;100821.91;4361674;32;32814;-84
2022/04/17 07:15:06;;;;;;;1.17;0.62;;;;;;;10.66;29.78;100815.53;4347836;32;33212;-83
2022/04/17 07:17:42;;;;;;;1.50;1.00;;;;;;;10.44;30.61;100816.13;4360175;32;33708;-83
2022/04/17 07:20:10;;;;;;;0.95;0.85;;;;;;;10.29;30.86;100824.44;4353568;32;34191;-83
2022/04/17 07:22:41;;;;;;;2.95;0.77;;;;;;;10.35;29.75;100829.56;4361911;32;32293;-82
2022/04/17 07:25:16;;;;;;;1.60;0.80;;;;;;;9.92;29.86;100828.00;4353810;32;33513;-83
2022/04/17 07:27:57;;;;;;;2.12;0.90;;;;;;;10.23;30.17;100832.47;4361011;32;32300;-83
2022/04/17 07:30:35;;;;;;;2.62;0.90;;;;;;;10.83;30.21;100823.84;4347080;32;32895;-83
2022/04/17 07:33:12;;;;;;;1.50;0.62;;;;;;;10.74;29.40;100826.75;4366009;32;32648;-83
2022/04/17 07:35:56;;;;;;;3.83;0.90;;;;;;;10.74;29.48;100824.09;4363134;32;34044;-84
2022/04/17 07:41:04;;;;;;;1.10;0.60;;;;;;;10.36;30.15;100823.37;4359907;32;34834;-84
2022/04/17 07:43:35;;;;;;;1.00;0.80;;;;;;;11.28;28.79;100811.03;4342067;32;32768;-84
2022/04/17 07:46:08;;;;;;;2.33;0.90;;;;;;;11.18;28.02;100811.38;4361107;32;32482;-84
2022/04/17 07:48:41;;;;;;;1.65;0.80;;;;;;;10.98;29.18;100815.47;4356951;32;30839;-83
2022/04/17 07:51:09;;;;;;;1.48;0.90;;;;;;;10.56;29.63;100814.03;4360909;32;33128;-83
2022/04/17 07:53:43;;;;;;;1.58;1.05;;;;;;;10.49;29.16;100811.59;4347524;32;32556;-84
2022/04/17 07:56:26;;;;;;;2.00;0.80;;;;;;;11.06;30.00;100809.09;4353308;32;35362;-83
2022/04/17 07:58:57;;;;;;;1.83;0.80;;;;;;;11.26;29.05;100807.59;4360929;32;33689;-84
2022/04/17 08:01:27;;;;;;;2.50;1.10;;;;;;;11.16;30.61;100806.13;4350332;32;33869;-84
2022/04/17 08:03:59;;;;;;;2.28;1.25;;;;;;;11.36;29.13;100796.72;4348750;32;32704;-84
2022/04/17 08:06:29;;;;;;;1.87;0.88;;;;;;;12.02;29.52;100793.72;4351847;32;33401;-84
2022/04/17 08:09:00;;;;;;;2.35;0.60;;;;;;;11.52;29.43;100792.69;4352431;32;34275;-84
2022/04/17 08:14:17;;;;;;;1.95;1.12;;;;;;;11.68;27.37;100788.66;4353847;32;34638;-84
2022/04/17 08:16:52;;;;;;;0.70;0.70;;;;;;;11.98;27.95;100784.12;4357919;32;35475;-84
2022/04/17 08:19:24;;;;;;;1.70;0.90;;;;;;;12.38;27.20;100784.53;4351118;32;33764;-83
2022/04/17 08:21:52;;;;;;;1.33;0.90;;;;;;;12.11;27.05;100786.37;4361382;32;33400;-84
2022/04/17 08:24:22;;;;;;;7.40;2.60;;;;;;;11.16;28.39;100789.41;4338531;32;32611;-84
2022/04/17 08:26:55;;;;;;;1.60;0.93;;;;;;;11.75;28.44;100784.88;4352210;32;33754;-84
2022/04/17 08:29:25;;;;;;;0.65;0.62;;;;;;;11.86;28.78;100781.91;4362510;32;34769;-85
2022/04/17 08:31:53;;;;;;;0.95;0.88;;;;;;;11.08;28.02;100786.13;4335077;32;33279;-84
2022/04/17 08:36:59;;;;;;;1.45;1.02;;;;;;;11.39;27.58;100773.69;4365793;32;33442;-85
2022/04/17 08:39:35;;;;;;;2.28;1.30;;;;;;;11.67;29.87;100770.16;4361828;32;33254;-85
2022/04/17 08:42:24;;;;;;;1.62;0.93;;;;;;;12.48;28.23;100765.59;4345501;32;33298;-84
2022/04/17 08:44:57;;;;;;;1.25;0.73;;;;;;;12.43;28.86;100756.97;4367434;32;32987;-85
2022/04/17 08:47:40;;;;;;;2.28;0.85;;;;;;;12.52;27.91;100767.22;4355963;32;34302;-84
2022/04/17 08:50:11;;;;;;;1.55;1.00;;;;;;;12.59;27.86;100767.03;4360705;32;32879;-85
2022/04/17 08:52:41;;;;;;;1.42;0.75;;;;;;;12.55;28.45;100764.47;4357237;32;34186;-84
2022/04/17 08:55:23;;;;;;;1.85;1.30;;;;;;;12.95;27.53;100770.06;4340355;32;34982;-84
2022/04/17 08:57:59;;;;;;;1.30;0.90;;;;;;;12.40;28.18;100762.37;4352071;32;32911;-84
2022/04/17 09:03:13;;;;;;;1.70;0.80;;;;;;;12.51;27.16;100739.00;4361689;32;33214;-84
2022/04/17 09:05:53;;;;;;;1.67;1.35;;;;;;;12.41;26.70;100742.91;4357776;32;32724;-84
2022/04/17 09:08:31;;;;;;;1.50;0.88;;;;;;;11.67;27.86;100741.06;4346904;32;33087;-84
2022/04/17 09:13:40;;;;;;;1.85;0.95;;;;;;;12.30;29.42;100740.66;4358809;32;34005;-84
2022/04/17 09:16:10;;;;;;;1.58;0.80;;;;;;;11.87;27.73;100736.00;4360068;32;32908;-85
2022/04/17 09:18:40;;;;;;;1.80;0.77;;;;;;;12.25;27.45;100733.81;4358109;32;33154;-83
2022/04/17 09:21:32;;;;;;;1.48;0.70;;;;;;;11.82;29.55;100730.00;4361300;32;33612;-84
2022/04/17 09:24:21;;;;;;;2.53;0.90;;;;;;;12.20;28.58;100733.09;4360285;32;32906;-84
2022/04/17 09:26:56;;;;;;;1.05;0.77;;;;;;;12.17;27.96;100727.91;4359802;32;32651;-84
2022/04/17 09:32:36;;;;;;;2.55;0.70;;;;;;;13.02;27.82;100708.81;4370030;32;32362;-85
2022/04/17 09:35:12;;;;;;;1.05;0.85;;;;;;;13.41;28.89;100702.84;4356413;32;34345;-86
2022/04/17 09:37:46;;;;;;;1.00;0.90;;;;;;;12.93;27.59;100695.06;4357089;32;33829;-86
2022/04/17 09:40:20;;;;;;;2.60;0.80;;;;;;;12.93;26.94;100698.56;4359500;32;33852;-85
2022/04/17 09:42:49;;;;;;;4.22;1.00;;;;;;;13.17;26.43;100694.06;4363926;32;33399;-86
2022/04/17 09:48:31;;;;;;;1.55;1.00;;;;;;;12.72;26.82;100694.06;4357973;32;33036;-85
2022/04/17 09:51:19;;;;;;;3.92;1.08;;;;;;;12.62;27.98;100693.56;4356219;32;34559;-85
2022/04/17 09:56:56;;;;;;;2.15;0.70;;;;;;;13.53;26.04;100677.59;4360180;32;32515;-86
2022/04/17 09:59:24;;;;;;;;;;;;;;;13.75;25.54;100670.47;4356733;32;32230;-85
2022/04/17 10:02:00;;;;;;;2.25;1.00;;;;;;;13.78;25.34;100661.50;4360807;32;34397;-86
2022/04/17 10:04:36;;;;;;;1.67;0.93;;;;;;;13.07;26.04;100664.41;4349003;32;33812;-85
2022/04/17 10:07:23;;;;;;;2.30;0.77;;;;;;;13.23;25.78;100679.72;4355211;32;34471;-85
2022/04/17 10:09:55;;;;;;;0.75;0.60;;;;;;;13.42;26.24;100663.94;4360875;32;34056;-86
2022/04/17 10:12:29;;;;;;;1.55;0.90;;;;;;;13.93;27.01;100659.97;4347918;32;34759;-86
2022/04/17 10:15:07;;;;;;;1.67;0.80;;;;;;;13.74;25.35;100649.31;4337385;33;32644;-86
2022/04/17 10:17:45;;;;;;;4.28;1.30;;;;;;;14.69;26.05;100645.91;4360256;32;33101;-86
2022/04/17 10:20:22;;;;;;;1.23;0.85;;;;;;;14.38;26.24;100650.87;4361417;32;34190;-86
2022/04/17 10:23:03;;;;;;;2.45;0.95;;;;;;;14.04;25.12;100650.59;4365790;32;33716;-85
2022/04/17 10:25:46;;;;;;;1.15;0.65;;;;;;;14.22;25.26;100629.47;4339953;32;32319;-86
2022/04/17 10:28:15;;;;;;;2.22;0.98;;;;;;;14.36;25.34;100627.03;4365786;32;34461;-85
2022/04/17 10:31:17;;;;;;;1.33;0.90;;;;;;;14.15;24.79;100617.38;4356039;32;31933;-86
2022/04/17 10:34:12;;;;;;;2.97;1.03;;;;;;;13.90;25.76;100634.41;4342719;32;33796;-86
2022/04/17 10:37:19;;;;;;;1.92;0.75;;;;;;;14.21;25.88;100623.28;4367816;32;33338;-85
2022/04/17 10:39:58;;;;;;;1.53;1.00;;;;;;;13.60;25.02;100623.34;4351677;32;33470;-86
2022/04/17 10:42:36;;;;;;;1.35;0.73;;;;;;;13.63;25.19;100615.28;4369392;32;32909;-85
2022/04/17 10:45:07;;;;;;;0.60;0.60;;;;;;;14.01;24.05;100610.06;4362490;32;33351;-85
2022/04/17 10:47:38;;;;;;;1.90;0.82;;;;;;;14.07;23.09;100594.69;4353548;32;33391;-86
2022/04/17 10:50:09;;;;;;;1.95;1.00;;;;;;;14.20;26.59;100599.47;4361078;32;33945;-85
2022/04/17 10:52:37;;;;;;;0.93;0.90;;;;;;;13.98;24.02;100605.75;4353663;32;32365;-85
2022/04/17 10:55:20;;;;;;;2.17;0.80;;;;;;;13.95;23.60;100599.69;4369043;32;34501;-85
2022/04/17 10:57:50;;;;;;;0.70;0.50;;;;;;;13.14;24.66;100619.09;4364585;32;34528;-85
2022/04/17 11:03:22;;;;;;;0.65;0.60;;;;;;;13.50;23.30;100601.66;4365981;32;33548;-85
2022/04/17 11:06:12;;;;;;;0.47;0.45;;;;;;;13.54;23.86;100595.31;4363628;32;33604;-86
2022/04/17 11:08:57;;;;;;;0.82;0.45;;;;;;;13.66;22.86;100598.34;4353424;32;32890;-85
2022/04/17 11:11:45;;;;;;;0.85;0.60;;;;;;;13.97;23.21;100596.06;4368195;32;32859;-85
2022/04/17 11:14:26;;;;;;;0.50;0.40;;;;;;;13.89;22.16;100594.66;4355670;32;32304;-85
2022/04/17 11:17:08;;;;;;;2.42;0.55;;;;;;;13.51;23.22;100584.81;4369598;32;33942;-86
2022/04/17 11:19:41;;;;;;;1.70;0.70;;;;;;;13.42;23.90;100579.91;4362069;32;32253;-86
2022/04/17 11:22:16;;;;;;;0.80;0.60;;;;;;;13.33;23.88;100574.97;4363064;32;34209;-86
2022/04/17 11:24:55;;;;;;;6.57;0.57;;;;;;;14.29;24.57;100561.81;4368229;32;32332;-86
2022/04/17 11:27:53;;;;;;;2.03;0.68;;;;;;;15.10;22.15;100550.81;4360003;32;34577;-86
2022/04/17 11:30:52;;;;;;;2.65;0.62;;;;;;;14.71;23.41;100558.94;4364982;32;33605;-86
2022/04/17 11:33:24;;;;;;;0.77;0.47;;;;;;;14.39;23.00;100568.47;4358051;32;33309;-86
2022/04/17 11:35:57;;;;;;;0.70;0.60;;;;;;;13.83;23.37;100563.97;4345650;32;32635;-86
2022/04/17 11:38:33;;;;;;;1.42;0.77;;;;;;;13.60;22.99;100559.66;4355808;32;32690;-86
2022/04/17 11:49:19;;;;;;;2.83;0.60;;;;;;;14.15;23.45;100546.56;4371468;32;33629;-86
2022/04/17 11:51:51;;;;;;;1.52;1.00;;;;;;;14.59;23.32;100544.47;4352911;32;33741;-85
2022/04/17 11:54:30;;;;;;;0.95;0.57;;;;;;;15.18;25.24;100546.88;4367206;32;33524;-86
2022/04/17 11:57:00;;;;;;;5.20;0.70;;;;;;;14.85;22.35;100545.84;4355687;32;32923;-85
2022/04/17 11:59:54;;;;;;;2.05;0.88;;;;;;;14.21;22.92;100548.91;4353250;32;34173;-85
2022/04/17 12:02:28;;;;;;;1.70;1.05;;;;;;;14.40;23.47;100543.59;4359714;32;32808;-86
2022/04/17 12:08:11;;;;;;;1.33;0.70;;;;;;;15.62;22.31;100526.84;4363761;32;32962;-86
2022/04/17 12:10:53;;;;;;;1.25;0.70;;;;;;;15.63;23.04;100527.69;4369454;32;34636;-86
2022/04/17 12:13:24;;;;;;;0.80;0.65;;;;;;;14.99;21.32;100531.00;4370123;32;33392;-86
2022/04/17 12:16:02;;;;;;;3.40;0.85;;;;;;;15.33;21.35;100519.50;4367450;32;33773;-86
2022/04/17 12:18:37;;;;;;;1.00;0.73;;;;;;;15.06;22.57;100527.97;4361113;32;33814;-86
2022/04/17 12:21:09;;;;;;;1.00;0.43;;;;;;;15.22;22.26;100508.56;4369805;32;33772;-86
2022/04/17 12:23:50;;;;;;;2.60;0.70;;;;;;;15.47;21.91;100513.44;4347711;33;34839;-86
2022/04/17 12:26:18;;;;;;;0.85;0.50;;;;;;;15.18;21.95;100514.97;4359619;32;33824;-86
2022/04/17 12:28:58;;;;;;;0.88;0.65;;;;;;;15.39;22.10;100513.88;4357132;32;34343;-86
2022/04/17 12:31:36;;;;;;;1.98;0.60;;;;;;;15.51;23.66;100512.34;4371559;32;34449;-85
2022/04/17 12:34:16;;;;;;;1.40;0.80;;;;;;;15.20;22.91;100515.78;4356598;32;34840;-86
2022/04/17 12:36:52;;;;;;;0.68;0.57;;;;;;;14.07;22.48;100512.38;4339235;32;32426;-85
2022/04/17 12:39:32;;;;;;;0.73;0.50;;;;;;;14.25;23.26;100504.50;4355794;32;32450;-85
2022/04/17 12:42:15;;;;;;;0.52;0.47;;;;;;;14.27;23.00;100510.56;4370964;32;32545;-85
2022/04/17 12:44:47;;;;;;;0.73;0.68;;;;;;;14.65;23.70;100502.59;4367208;32;32893;-85
2022/04/17 12:47:16;;;;;;;1.42;1.25;;;;;;;14.81;21.14;100483.16;4368411;32;35267;-85
2022/04/17 12:50:07;;;;;;;1.85;0.85;;;;;;;14.21;23.38;100489.62;4367978;32;34340;-85
2022/04/17 12:52:55;;;;;;;2.55;0.75;;;;;;;13.98;24.02;100494.22;4359792;32;33257;-85
2022/04/17 12:55:35;;;;;;;0.93;0.60;;;;;;;14.34;22.85;100485.47;4366216;32;33958;-86
2022/04/17 12:58:16;;;;;;;1.30;0.60;;;;;;;14.95;21.54;100477.09;4372512;32;34223;-85
2022/04/17 13:01:00;;;;;;;3.95;1.30;;;;;;;14.90;21.67;100479.12;4362844;32;34172;-86
2022/04/17 13:03:36;;;;;;;;;;;;;;;14.59;21.68;100486.00;4370179;32;33034;-86
2022/04/17 13:06:18;;;;;;;1.20;0.65;;;;;;;14.75;21.33;100466.63;4355875;32;33516;-85
2022/04/17 13:14:54;;;;;;;1.35;0.98;;;;;;;15.42;21.53;100447.16;4370683;32;33475;-86